ロメ の空港の天気 - METARとTAF

ロメ空港 ( DXXX / LFW ) - トーゴ ロメ
飛行場実況気象(Metar)
観測時間11/27 08:00 GMT (11/27 08:00 UTC)
風向・風速西 4m/s
視程10km以上
天気現象
少しの雲 雲底高度 400m
気温28℃
湿度84%
気圧1011hPa
METARDXXX 270800Z 27007KT 230V290 9999 FEW013 28/25 Q1011 NOSIG
過去の天気等 Google飛行場航空写真 Wunderground天気予報

過去48時間のMETAR

飛行場予報(TAF)
発表時間: 11/26 23:00 GMT (11/26 23:00 UTC)
予報対象時間: 27日0時 GMT ~ 28日6時 GMT
風向・風速南南西 5m/s
視程10km以上
少しの雲 雲底高度 370m
27日0時 GMT ~ 27日2時 GMT に徐々に
風向・風速西 3m/s
27日9時 GMT ~ 27日11時 GMT に徐々に
風向・風速南南西 5m/s
27日22時 GMT ~ 27日24時 GMT に徐々に
風向・風速西 3m/s
TAF COR DXXX 262300Z 2700/2806 20010KT 9999 FEW012
BECMG 2700/2702 26005KT
BECMG 2709/2711 20010KT
BECMG 2722/2724 26005KT